sensor_id;sensor_type;location;lat;lon;timestamp;P1;durP1;ratioP1;P2;durP2;ratioP2
79761;SDS011;69249;42.122;24.734;2023-07-22T00:00:44;7.70;;;5.15;;
79761;SDS011;69249;42.122;24.734;2023-07-22T00:03:10;4.95;;;4.10;;
79761;SDS011;69249;42.122;24.734;2023-07-22T00:05:36;6.07;;;4.47;;
79761;SDS011;69249;42.122;24.734;2023-07-22T00:08:02;6.05;;;4.60;;
79761;SDS011;69249;42.122;24.734;2023-07-22T00:10:28;9.40;;;4.78;;
79761;SDS011;69249;42.122;24.734;2023-07-22T00:12:54;7.50;;;4.70;;
79761;SDS011;69249;42.122;24.734;2023-07-22T00:15:19;9.65;;;4.93;;
79761;SDS011;69249;42.122;24.734;2023-07-22T00:17:47;6.80;;;4.72;;
79761;SDS011;69249;42.122;24.734;2023-07-22T00:20:13;6.53;;;4.53;;
79761;SDS011;69249;42.122;24.734;2023-07-22T00:22:41;8.38;;;4.85;;
79761;SDS011;69249;42.122;24.734;2023-07-22T00:25:09;8.20;;;4.90;;
79761;SDS011;69249;42.122;24.734;2023-07-22T00:27:39;8.57;;;4.68;;
79761;SDS011;69249;42.122;24.734;2023-07-22T00:30:06;5.10;;;4.22;;
79761;SDS011;69249;42.122;24.734;2023-07-22T00:32:33;7.68;;;4.85;;
79761;SDS011;69249;42.122;24.734;2023-07-22T00:34:58;6.07;;;4.30;;
79761;SDS011;69249;42.122;24.734;2023-07-22T00:37:24;5.60;;;4.35;;
79761;SDS011;69249;42.122;24.734;2023-07-22T00:39:50;6.40;;;4.40;;
79761;SDS011;69249;42.122;24.734;2023-07-22T00:42:16;6.97;;;4.50;;
79761;SDS011;69249;42.122;24.734;2023-07-22T00:44:42;10.75;;;4.82;;
79761;SDS011;69249;42.122;24.734;2023-07-22T00:47:07;7.70;;;4.40;;
79761;SDS011;69249;42.122;24.734;2023-07-22T00:49:33;9.40;;;4.47;;
79761;SDS011;69249;42.122;24.734;2023-07-22T00:52:00;6.13;;;4.35;;
79761;SDS011;69249;42.122;24.734;2023-07-22T00:54:27;9.13;;;4.63;;
79761;SDS011;69249;42.122;24.734;2023-07-22T00:56:54;10.52;;;4.70;;
79761;SDS011;69249;42.122;24.734;2023-07-22T00:59:21;7.22;;;4.68;;
79761;SDS011;69249;42.122;24.734;2023-07-22T01:01:47;6.95;;;4.43;;
79761;SDS011;69249;42.122;24.734;2023-07-22T01:04:13;8.98;;;4.85;;
79761;SDS011;69249;42.122;24.734;2023-07-22T01:06:39;7.05;;;4.40;;
79761;SDS011;69249;42.122;24.734;2023-07-22T01:09:05;7.75;;;4.50;;
79761;SDS011;69249;42.122;24.734;2023-07-22T01:11:32;7.45;;;4.93;;
79761;SDS011;69249;42.122;24.734;2023-07-22T01:13:58;6.05;;;4.65;;
79761;SDS011;69249;42.122;24.734;2023-07-22T01:16:25;7.28;;;5.00;;
79761;SDS011;69249;42.122;24.734;2023-07-22T01:18:52;9.60;;;4.95;;
79761;SDS011;69249;42.122;24.734;2023-07-22T01:21:19;7.10;;;4.47;;
79761;SDS011;69249;42.122;24.734;2023-07-22T01:23:49;6.85;;;4.65;;
79761;SDS011;69249;42.122;24.734;2023-07-22T01:26:15;7.80;;;4.70;;
79761;SDS011;69249;42.122;24.734;2023-07-22T01:28:42;8.07;;;5.10;;
79761;SDS011;69249;42.122;24.734;2023-07-22T01:31:08;7.68;;;5.07;;
79761;SDS011;69249;42.122;24.734;2023-07-22T01:33:34;6.50;;;4.70;;
79761;SDS011;69249;42.122;24.734;2023-07-22T01:36:00;9.23;;;4.80;;
79761;SDS011;69249;42.122;24.734;2023-07-22T01:38:26;9.95;;;4.78;;
79761;SDS011;69249;42.122;24.734;2023-07-22T01:40:54;6.18;;;4.40;;
79761;SDS011;69249;42.122;24.734;2023-07-22T01:43:20;7.88;;;5.15;;
79761;SDS011;69249;42.122;24.734;2023-07-22T01:45:46;8.32;;;4.88;;
79761;SDS011;69249;42.122;24.734;2023-07-22T01:48:12;7.57;;;4.45;;
79761;SDS011;69249;42.122;24.734;2023-07-22T01:50:37;7.57;;;5.15;;
79761;SDS011;69249;42.122;24.734;2023-07-22T01:53:03;10.27;;;4.95;;
79761;SDS011;69249;42.122;24.734;2023-07-22T01:55:30;6.57;;;4.55;;
79761;SDS011;69249;42.122;24.734;2023-07-22T01:57:57;5.75;;;4.57;;
79761;SDS011;69249;42.122;24.734;2023-07-22T02:00:23;5.97;;;4.75;;
79761;SDS011;69249;42.122;24.734;2023-07-22T02:02:49;11.63;;;4.75;;
79761;SDS011;69249;42.122;24.734;2023-07-22T02:05:15;9.25;;;5.15;;
79761;SDS011;69249;42.122;24.734;2023-07-22T02:07:41;6.10;;;4.35;;
79761;SDS011;69249;42.122;24.734;2023-07-22T02:10:07;5.65;;;4.85;;
79761;SDS011;69249;42.122;24.734;2023-07-22T02:12:33;9.57;;;5.78;;
79761;SDS011;69249;42.122;24.734;2023-07-22T02:14:59;6.85;;;4.93;;
79761;SDS011;69249;42.122;24.734;2023-07-22T02:17:24;7.45;;;4.85;;
79761;SDS011;69249;42.122;24.734;2023-07-22T02:19:50;8.75;;;5.22;;
79761;SDS011;69249;42.122;24.734;2023-07-22T02:22:16;8.35;;;5.10;;
79761;SDS011;69249;42.122;24.734;2023-07-22T02:24:42;7.10;;;5.50;;
79761;SDS011;69249;42.122;24.734;2023-07-22T02:27:08;10.00;;;5.50;;
79761;SDS011;69249;42.122;24.734;2023-07-22T02:29:34;6.95;;;5.50;;
79761;SDS011;69249;42.122;24.734;2023-07-22T02:31:59;6.97;;;5.57;;
79761;SDS011;69249;42.122;24.734;2023-07-22T02:34:26;11.85;;;5.93;;
79761;SDS011;69249;42.122;24.734;2023-07-22T02:36:51;8.88;;;5.55;;
79761;SDS011;69249;42.122;24.734;2023-07-22T02:39:17;6.63;;;5.35;;
79761;SDS011;69249;42.122;24.734;2023-07-22T02:41:43;9.73;;;5.70;;
79761;SDS011;69249;42.122;24.734;2023-07-22T02:44:08;10.77;;;5.88;;
79761;SDS011;69249;42.122;24.734;2023-07-22T02:46:34;8.90;;;5.95;;
79761;SDS011;69249;42.122;24.734;2023-07-22T02:49:00;10.38;;;5.90;;
79761;SDS011;69249;42.122;24.734;2023-07-22T02:51:25;10.48;;;5.80;;
79761;SDS011;69249;42.122;24.734;2023-07-22T02:53:51;8.23;;;6.20;;
79761;SDS011;69249;42.122;24.734;2023-07-22T02:56:17;9.50;;;5.78;;
79761;SDS011;69249;42.122;24.734;2023-07-22T02:58:42;8.75;;;5.30;;
79761;SDS011;69249;42.122;24.734;2023-07-22T03:01:08;5.93;;;5.32;;
79761;SDS011;69249;42.122;24.734;2023-07-22T03:03:35;9.38;;;5.93;;
79761;SDS011;69249;42.122;24.734;2023-07-22T03:06:02;6.80;;;5.57;;
79761;SDS011;69249;42.122;24.734;2023-07-22T03:08:29;9.90;;;6.28;;
79761;SDS011;69249;42.122;24.734;2023-07-22T03:10:55;8.43;;;6.35;;
79761;SDS011;69249;42.122;24.734;2023-07-22T03:13:21;11.30;;;6.55;;
79761;SDS011;69249;42.122;24.734;2023-07-22T03:15:46;14.20;;;6.75;;
79761;SDS011;69249;42.122;24.734;2023-07-22T03:18:12;10.27;;;6.32;;
79761;SDS011;69249;42.122;24.734;2023-07-22T03:20:38;7.88;;;6.65;;
79761;SDS011;69249;42.122;24.734;2023-07-22T03:23:04;10.63;;;6.78;;
79761;SDS011;69249;42.122;24.734;2023-07-22T03:25:31;9.60;;;6.45;;
79761;SDS011;69249;42.122;24.734;2023-07-22T03:27:57;9.50;;;6.97;;
79761;SDS011;69249;42.122;24.734;2023-07-22T03:30:27;12.45;;;6.45;;
79761;SDS011;69249;42.122;24.734;2023-07-22T03:32:52;17.23;;;6.40;;
79761;SDS011;69249;42.122;24.734;2023-07-22T03:35:18;8.70;;;5.80;;
79761;SDS011;69249;42.122;24.734;2023-07-22T03:37:44;11.20;;;6.32;;
79761;SDS011;69249;42.122;24.734;2023-07-22T03:40:10;14.00;;;8.10;;
79761;SDS011;69249;42.122;24.734;2023-07-22T03:42:44;9.73;;;6.68;;
79761;SDS011;69249;42.122;24.734;2023-07-22T03:45:11;7.50;;;6.32;;
79761;SDS011;69249;42.122;24.734;2023-07-22T03:47:37;10.23;;;6.32;;
79761;SDS011;69249;42.122;24.734;2023-07-22T03:50:04;12.65;;;6.65;;
79761;SDS011;69249;42.122;24.734;2023-07-22T03:52:30;10.20;;;6.03;;
79761;SDS011;69249;42.122;24.734;2023-07-22T03:54:56;9.15;;;5.70;;
79761;SDS011;69249;42.122;24.734;2023-07-22T03:57:28;7.40;;;5.70;;
79761;SDS011;69249;42.122;24.734;2023-07-22T03:59:54;9.57;;;6.22;;
79761;SDS011;69249;42.122;24.734;2023-07-22T04:02:21;10.88;;;6.20;;
79761;SDS011;69249;42.122;24.734;2023-07-22T04:04:47;9.35;;;5.93;;
79761;SDS011;69249;42.122;24.734;2023-07-22T04:07:13;10.13;;;6.57;;
79761;SDS011;69249;42.122;24.734;2023-07-22T04:09:39;12.23;;;6.63;;
79761;SDS011;69249;42.122;24.734;2023-07-22T04:12:05;11.57;;;6.22;;
79761;SDS011;69249;42.122;24.734;2023-07-22T04:14:32;10.55;;;7.00;;
79761;SDS011;69249;42.122;24.734;2023-07-22T04:16:57;11.82;;;6.38;;
79761;SDS011;69249;42.122;24.734;2023-07-22T04:19:23;7.97;;;6.22;;
79761;SDS011;69249;42.122;24.734;2023-07-22T04:21:49;12.75;;;6.25;;
79761;SDS011;69249;42.122;24.734;2023-07-22T04:24:14;11.48;;;6.70;;
79761;SDS011;69249;42.122;24.734;2023-07-22T04:26:43;13.75;;;6.03;;
79761;SDS011;69249;42.122;24.734;2023-07-22T04:29:10;9.93;;;5.80;;
79761;SDS011;69249;42.122;24.734;2023-07-22T04:31:37;11.20;;;6.53;;
79761;SDS011;69249;42.122;24.734;2023-07-22T04:34:03;11.05;;;6.72;;
79761;SDS011;69249;42.122;24.734;2023-07-22T04:36:28;14.15;;;6.82;;
79761;SDS011;69249;42.122;24.734;2023-07-22T04:38:54;11.73;;;6.45;;
79761;SDS011;69249;42.122;24.734;2023-07-22T04:41:20;10.02;;;6.72;;
79761;SDS011;69249;42.122;24.734;2023-07-22T04:43:46;13.00;;;6.80;;
79761;SDS011;69249;42.122;24.734;2023-07-22T04:46:12;9.88;;;7.30;;
79761;SDS011;69249;42.122;24.734;2023-07-22T04:48:38;10.40;;;6.53;;
79761;SDS011;69249;42.122;24.734;2023-07-22T04:51:04;13.13;;;7.60;;
79761;SDS011;69249;42.122;24.734;2023-07-22T04:53:29;13.50;;;7.00;;
79761;SDS011;69249;42.122;24.734;2023-07-22T04:55:55;11.50;;;6.53;;
79761;SDS011;69249;42.122;24.734;2023-07-22T04:58:21;11.73;;;7.63;;
79761;SDS011;69249;42.122;24.734;2023-07-22T05:00:47;20.75;;;13.70;;
79761;SDS011;69249;42.122;24.734;2023-07-22T05:03:13;25.67;;;13.85;;
79761;SDS011;69249;42.122;24.734;2023-07-22T05:05:39;13.48;;;9.93;;
79761;SDS011;69249;42.122;24.734;2023-07-22T05:08:06;16.15;;;9.20;;
79761;SDS011;69249;42.122;24.734;2023-07-22T05:10:33;14.35;;;8.15;;
79761;SDS011;69249;42.122;24.734;2023-07-22T05:12:59;15.52;;;7.43;;
79761;SDS011;69249;42.122;24.734;2023-07-22T05:15:24;10.73;;;6.50;;
79761;SDS011;69249;42.122;24.734;2023-07-22T05:17:50;11.85;;;7.55;;
79761;SDS011;69249;42.122;24.734;2023-07-22T05:20:16;9.50;;;6.68;;
79761;SDS011;69249;42.122;24.734;2023-07-22T05:22:42;12.00;;;7.18;;
79761;SDS011;69249;42.122;24.734;2023-07-22T05:25:08;9.55;;;6.82;;
79761;SDS011;69249;42.122;24.734;2023-07-22T05:27:35;11.65;;;6.93;;
79761;SDS011;69249;42.122;24.734;2023-07-22T05:30:01;10.18;;;6.57;;
79761;SDS011;69249;42.122;24.734;2023-07-22T05:32:28;11.20;;;6.93;;
79761;SDS011;69249;42.122;24.734;2023-07-22T05:34:54;10.85;;;6.15;;
79761;SDS011;69249;42.122;24.734;2023-07-22T05:37:21;15.20;;;7.82;;
79761;SDS011;69249;42.122;24.734;2023-07-22T05:39:47;13.10;;;7.15;;
79761;SDS011;69249;42.122;24.734;2023-07-22T05:42:13;7.97;;;7.13;;
79761;SDS011;69249;42.122;24.734;2023-07-22T05:44:38;11.23;;;7.47;;
79761;SDS011;69249;42.122;24.734;2023-07-22T05:47:04;15.23;;;7.30;;
79761;SDS011;69249;42.122;24.734;2023-07-22T05:49:30;13.15;;;7.38;;
79761;SDS011;69249;42.122;24.734;2023-07-22T05:51:56;15.00;;;7.13;;
79761;SDS011;69249;42.122;24.734;2023-07-22T05:54:22;11.90;;;7.00;;
79761;SDS011;69249;42.122;24.734;2023-07-22T05:56:47;12.43;;;7.18;;
79761;SDS011;69249;42.122;24.734;2023-07-22T05:59:13;11.55;;;7.05;;
79761;SDS011;69249;42.122;24.734;2023-07-22T06:01:39;12.73;;;7.72;;
79761;SDS011;69249;42.122;24.734;2023-07-22T06:04:05;12.35;;;7.20;;
79761;SDS011;69249;42.122;24.734;2023-07-22T06:06:31;9.60;;;7.63;;
79761;SDS011;69249;42.122;24.734;2023-07-22T06:08:57;10.70;;;7.72;;
79761;SDS011;69249;42.122;24.734;2023-07-22T06:11:22;9.18;;;6.90;;
79761;SDS011;69249;42.122;24.734;2023-07-22T06:13:48;12.55;;;7.40;;
79761;SDS011;69249;42.122;24.734;2023-07-22T06:16:14;13.45;;;8.05;;
79761;SDS011;69249;42.122;24.734;2023-07-22T06:18:40;15.52;;;7.85;;
79761;SDS011;69249;42.122;24.734;2023-07-22T06:21:05;12.75;;;7.88;;
79761;SDS011;69249;42.122;24.734;2023-07-22T06:23:31;11.80;;;8.13;;
79761;SDS011;69249;42.122;24.734;2023-07-22T06:25:57;11.98;;;7.40;;
79761;SDS011;69249;42.122;24.734;2023-07-22T06:28:23;16.70;;;8.18;;
79761;SDS011;69249;42.122;24.734;2023-07-22T06:30:48;28.70;;;9.13;;
79761;SDS011;69249;42.122;24.734;2023-07-22T06:33:14;17.52;;;8.32;;
79761;SDS011;69249;42.122;24.734;2023-07-22T06:35:41;13.57;;;7.82;;
79761;SDS011;69249;42.122;24.734;2023-07-22T06:38:07;13.52;;;8.02;;
79761;SDS011;69249;42.122;24.734;2023-07-22T06:40:33;14.35;;;7.45;;
79761;SDS011;69249;42.122;24.734;2023-07-22T06:42:58;10.93;;;7.50;;
79761;SDS011;69249;42.122;24.734;2023-07-22T06:45:24;11.77;;;7.88;;
79761;SDS011;69249;42.122;24.734;2023-07-22T06:47:50;14.65;;;7.82;;
79761;SDS011;69249;42.122;24.734;2023-07-22T06:50:15;14.98;;;7.50;;
79761;SDS011;69249;42.122;24.734;2023-07-22T06:52:41;10.55;;;7.55;;
79761;SDS011;69249;42.122;24.734;2023-07-22T06:55:07;14.90;;;7.70;;
79761;SDS011;69249;42.122;24.734;2023-07-22T06:57:33;14.07;;;8.20;;
79761;SDS011;69249;42.122;24.734;2023-07-22T06:59:59;16.02;;;8.43;;
79761;SDS011;69249;42.122;24.734;2023-07-22T07:02:25;16.25;;;9.75;;
79761;SDS011;69249;42.122;24.734;2023-07-22T07:04:51;12.07;;;8.05;;
79761;SDS011;69249;42.122;24.734;2023-07-22T07:07:17;15.70;;;8.88;;
79761;SDS011;69249;42.122;24.734;2023-07-22T07:09:43;12.25;;;7.82;;
79761;SDS011;69249;42.122;24.734;2023-07-22T07:12:08;12.88;;;8.70;;
79761;SDS011;69249;42.122;24.734;2023-07-22T07:14:34;17.30;;;9.18;;
79761;SDS011;69249;42.122;24.734;2023-07-22T07:17:01;12.30;;;8.02;;
79761;SDS011;69249;42.122;24.734;2023-07-22T07:19:27;9.65;;;7.75;;
79761;SDS011;69249;42.122;24.734;2023-07-22T07:21:53;13.60;;;7.85;;
79761;SDS011;69249;42.122;24.734;2023-07-22T07:24:19;10.30;;;8.10;;
79761;SDS011;69249;42.122;24.734;2023-07-22T07:26:45;9.80;;;7.65;;
79761;SDS011;69249;42.122;24.734;2023-07-22T07:29:11;13.82;;;8.15;;
79761;SDS011;69249;42.122;24.734;2023-07-22T07:31:37;10.10;;;7.70;;
79761;SDS011;69249;42.122;24.734;2023-07-22T07:34:03;14.65;;;9.13;;
79761;SDS011;69249;42.122;24.734;2023-07-22T07:36:29;18.25;;;8.23;;
79761;SDS011;69249;42.122;24.734;2023-07-22T07:38:56;14.38;;;8.05;;
79761;SDS011;69249;42.122;24.734;2023-07-22T07:41:21;14.65;;;8.68;;
79761;SDS011;69249;42.122;24.734;2023-07-22T07:43:47;12.77;;;8.93;;
79761;SDS011;69249;42.122;24.734;2023-07-22T07:46:17;11.27;;;7.68;;
79761;SDS011;69249;42.122;24.734;2023-07-22T07:48:50;14.18;;;7.78;;
79761;SDS011;69249;42.122;24.734;2023-07-22T07:51:18;13.20;;;8.50;;
79761;SDS011;69249;42.122;24.734;2023-07-22T07:53:45;9.80;;;8.10;;
79761;SDS011;69249;42.122;24.734;2023-07-22T07:56:15;9.43;;;7.90;;
79761;SDS011;69249;42.122;24.734;2023-07-22T07:58:42;13.18;;;7.57;;
79761;SDS011;69249;42.122;24.734;2023-07-22T08:01:08;11.05;;;8.02;;
79761;SDS011;69249;42.122;24.734;2023-07-22T08:03:34;10.20;;;7.45;;
79761;SDS011;69249;42.122;24.734;2023-07-22T08:06:01;14.02;;;7.50;;
79761;SDS011;69249;42.122;24.734;2023-07-22T08:08:27;15.70;;;8.55;;
79761;SDS011;69249;42.122;24.734;2023-07-22T08:13:26;12.45;;;8.18;;
79761;SDS011;69249;42.122;24.734;2023-07-22T08:15:52;10.80;;;8.20;;
79761;SDS011;69249;42.122;24.734;2023-07-22T08:18:18;10.60;;;7.72;;
79761;SDS011;69249;42.122;24.734;2023-07-22T08:20:45;12.48;;;7.72;;
79761;SDS011;69249;42.122;24.734;2023-07-22T08:23:12;9.27;;;8.18;;
79761;SDS011;69249;42.122;24.734;2023-07-22T08:25:38;15.52;;;7.95;;
79761;SDS011;69249;42.122;24.734;2023-07-22T08:28:04;11.10;;;7.07;;
79761;SDS011;69249;42.122;24.734;2023-07-22T08:30:30;8.05;;;7.25;;
79761;SDS011;69249;42.122;24.734;2023-07-22T08:32:55;12.65;;;7.88;;
79761;SDS011;69249;42.122;24.734;2023-07-22T08:35:21;14.20;;;7.60;;
79761;SDS011;69249;42.122;24.734;2023-07-22T08:37:47;12.02;;;7.53;;
79761;SDS011;69249;42.122;24.734;2023-07-22T08:40:13;8.93;;;7.50;;
79761;SDS011;69249;42.122;24.734;2023-07-22T08:42:40;12.23;;;7.60;;
79761;SDS011;69249;42.122;24.734;2023-07-22T08:45:06;10.13;;;7.93;;
79761;SDS011;69249;42.122;24.734;2023-07-22T08:47:36;8.85;;;7.28;;
79761;SDS011;69249;42.122;24.734;2023-07-22T08:50:09;9.30;;;7.28;;
79761;SDS011;69249;42.122;24.734;2023-07-22T08:52:36;12.35;;;8.07;;
79761;SDS011;69249;42.122;24.734;2023-07-22T08:55:03;10.23;;;7.25;;
79761;SDS011;69249;42.122;24.734;2023-07-22T08:57:29;13.18;;;7.82;;
79761;SDS011;69249;42.122;24.734;2023-07-22T08:59:56;18.27;;;8.27;;
79761;SDS011;69249;42.122;24.734;2023-07-22T09:02:23;10.85;;;7.88;;
79761;SDS011;69249;42.122;24.734;2023-07-22T09:04:50;13.57;;;8.18;;
79761;SDS011;69249;42.122;24.734;2023-07-22T09:07:16;13.80;;;7.80;;
79761;SDS011;69249;42.122;24.734;2023-07-22T09:09:44;10.98;;;7.15;;
79761;SDS011;69249;42.122;24.734;2023-07-22T09:12:11;13.32;;;7.85;;
79761;SDS011;69249;42.122;24.734;2023-07-22T09:14:39;10.20;;;8.00;;
79761;SDS011;69249;42.122;24.734;2023-07-22T09:17:06;12.55;;;7.47;;
79761;SDS011;69249;42.122;24.734;2023-07-22T09:19:32;13.93;;;8.13;;
79761;SDS011;69249;42.122;24.734;2023-07-22T09:21:57;12.65;;;7.95;;
79761;SDS011;69249;42.122;24.734;2023-07-22T09:24:24;10.88;;;7.65;;
79761;SDS011;69249;42.122;24.734;2023-07-22T09:26:53;12.18;;;7.75;;
79761;SDS011;69249;42.122;24.734;2023-07-22T09:29:24;11.02;;;7.20;;
79761;SDS011;69249;42.122;24.734;2023-07-22T09:32:06;15.93;;;8.00;;
79761;SDS011;69249;42.122;24.734;2023-07-22T09:34:32;10.98;;;7.63;;
79761;SDS011;69249;42.122;24.734;2023-07-22T09:36:58;10.77;;;7.35;;
79761;SDS011;69249;42.122;24.734;2023-07-22T09:39:28;9.20;;;7.07;;
79761;SDS011;69249;42.122;24.734;2023-07-22T09:41:55;12.82;;;8.13;;
79761;SDS011;69249;42.122;24.734;2023-07-22T09:44:22;9.93;;;7.65;;
79761;SDS011;69249;42.122;24.734;2023-07-22T09:46:48;11.90;;;7.72;;
79761;SDS011;69249;42.122;24.734;2023-07-22T09:49:15;11.13;;;7.93;;
79761;SDS011;69249;42.122;24.734;2023-07-22T09:51:42;12.48;;;8.02;;
79761;SDS011;69249;42.122;24.734;2023-07-22T09:54:08;12.63;;;7.78;;
79761;SDS011;69249;42.122;24.734;2023-07-22T09:56:43;12.43;;;8.77;;
79761;SDS011;69249;42.122;24.734;2023-07-22T09:59:10;11.00;;;7.88;;
79761;SDS011;69249;42.122;24.734;2023-07-22T10:01:39;9.63;;;7.63;;
79761;SDS011;69249;42.122;24.734;2023-07-22T10:04:06;9.57;;;7.65;;
79761;SDS011;69249;42.122;24.734;2023-07-22T10:06:32;13.57;;;8.32;;
79761;SDS011;69249;42.122;24.734;2023-07-22T10:09:03;14.10;;;7.85;;
79761;SDS011;69249;42.122;24.734;2023-07-22T10:11:33;11.70;;;7.60;;
79761;SDS011;69249;42.122;24.734;2023-07-22T10:14:02;15.20;;;7.82;;
79761;SDS011;69249;42.122;24.734;2023-07-22T10:16:28;13.98;;;8.02;;
79761;SDS011;69249;42.122;24.734;2023-07-22T10:18:55;15.07;;;7.90;;
79761;SDS011;69249;42.122;24.734;2023-07-22T10:21:21;14.48;;;8.20;;
79761;SDS011;69249;42.122;24.734;2023-07-22T10:23:49;13.85;;;8.13;;
79761;SDS011;69249;42.122;24.734;2023-07-22T10:26:16;12.93;;;8.48;;
79761;SDS011;69249;42.122;24.734;2023-07-22T10:28:43;14.52;;;8.30;;
79761;SDS011;69249;42.122;24.734;2023-07-22T10:31:10;10.52;;;7.75;;
79761;SDS011;69249;42.122;24.734;2023-07-22T10:33:37;11.43;;;8.07;;
79761;SDS011;69249;42.122;24.734;2023-07-22T10:36:04;16.10;;;8.27;;
79761;SDS011;69249;42.122;24.734;2023-07-22T10:38:32;12.93;;;8.27;;
79761;SDS011;69249;42.122;24.734;2023-07-22T10:40:58;15.95;;;8.48;;
79761;SDS011;69249;42.122;24.734;2023-07-22T10:43:25;19.73;;;8.52;;
79761;SDS011;69249;42.122;24.734;2023-07-22T10:45:52;16.38;;;7.97;;
79761;SDS011;69249;42.122;24.734;2023-07-22T10:48:25;17.10;;;8.55;;
79761;SDS011;69249;42.122;24.734;2023-07-22T10:50:58;14.13;;;8.25;;
79761;SDS011;69249;42.122;24.734;2023-07-22T10:53:30;14.95;;;8.15;;
79761;SDS011;69249;42.122;24.734;2023-07-22T11:01:22;20.17;;;7.88;;
79761;SDS011;69249;42.122;24.734;2023-07-22T11:06:36;10.15;;;7.63;;
79761;SDS011;69249;42.122;24.734;2023-07-22T11:09:03;11.68;;;8.10;;
79761;SDS011;69249;42.122;24.734;2023-07-22T11:11:34;10.77;;;8.05;;
79761;SDS011;69249;42.122;24.734;2023-07-22T11:14:22;15.90;;;8.05;;
79761;SDS011;69249;42.122;24.734;2023-07-22T11:16:49;11.57;;;7.90;;
79761;SDS011;69249;42.122;24.734;2023-07-22T11:19:16;11.55;;;7.72;;
79761;SDS011;69249;42.122;24.734;2023-07-22T11:21:45;17.65;;;7.45;;
79761;SDS011;69249;42.122;24.734;2023-07-22T11:24:13;13.10;;;7.75;;
79761;SDS011;69249;42.122;24.734;2023-07-22T11:26:39;14.05;;;7.38;;
79761;SDS011;69249;42.122;24.734;2023-07-22T11:29:05;14.35;;;7.18;;
79761;SDS011;69249;42.122;24.734;2023-07-22T11:31:33;11.60;;;6.70;;
79761;SDS011;69249;42.122;24.734;2023-07-22T11:34:06;14.50;;;7.07;;
79761;SDS011;69249;42.122;24.734;2023-07-22T11:36:31;11.02;;;6.95;;
79761;SDS011;69249;42.122;24.734;2023-07-22T11:39:03;12.43;;;6.40;;
79761;SDS011;69249;42.122;24.734;2023-07-22T11:41:50;14.20;;;6.85;;
79761;SDS011;69249;42.122;24.734;2023-07-22T11:44:17;15.50;;;7.15;;
79761;SDS011;69249;42.122;24.734;2023-07-22T11:46:58;15.27;;;7.05;;
79761;SDS011;69249;42.122;24.734;2023-07-22T11:49:29;13.18;;;7.03;;
79761;SDS011;69249;42.122;24.734;2023-07-22T11:54:26;13.15;;;6.80;;
79761;SDS011;69249;42.122;24.734;2023-07-22T11:56:53;12.15;;;6.78;;
79761;SDS011;69249;42.122;24.734;2023-07-22T11:59:36;12.32;;;7.45;;
79761;SDS011;69249;42.122;24.734;2023-07-22T12:02:03;15.23;;;7.55;;
79761;SDS011;69249;42.122;24.734;2023-07-22T12:04:33;15.20;;;6.90;;
79761;SDS011;69249;42.122;24.734;2023-07-22T12:07:01;16.60;;;6.70;;
79761;SDS011;69249;42.122;24.734;2023-07-22T12:09:29;15.15;;;7.13;;
79761;SDS011;69249;42.122;24.734;2023-07-22T12:11:58;12.50;;;6.95;;
79761;SDS011;69249;42.122;24.734;2023-07-22T12:14:32;15.50;;;6.85;;
79761;SDS011;69249;42.122;24.734;2023-07-22T12:17:02;14.40;;;6.53;;
79761;SDS011;69249;42.122;24.734;2023-07-22T12:19:28;17.70;;;6.75;;
79761;SDS011;69249;42.122;24.734;2023-07-22T12:21:55;11.90;;;6.55;;
79761;SDS011;69249;42.122;24.734;2023-07-22T12:24:20;14.70;;;7.47;;
79761;SDS011;69249;42.122;24.734;2023-07-22T12:26:46;16.60;;;7.35;;
79761;SDS011;69249;42.122;24.734;2023-07-22T12:29:12;16.45;;;7.03;;
79761;SDS011;69249;42.122;24.734;2023-07-22T12:31:37;15.90;;;6.93;;
79761;SDS011;69249;42.122;24.734;2023-07-22T12:34:03;13.02;;;6.85;;
79761;SDS011;69249;42.122;24.734;2023-07-22T12:36:29;13.45;;;7.20;;
79761;SDS011;69249;42.122;24.734;2023-07-22T12:38:55;17.40;;;6.80;;
79761;SDS011;69249;42.122;24.734;2023-07-22T12:41:20;15.65;;;6.93;;
79761;SDS011;69249;42.122;24.734;2023-07-22T12:43:46;15.82;;;7.22;;
79761;SDS011;69249;42.122;24.734;2023-07-22T12:46:14;24.05;;;6.90;;
79761;SDS011;69249;42.122;24.734;2023-07-22T12:48:39;15.38;;;6.45;;
79761;SDS011;69249;42.122;24.734;2023-07-22T12:51:05;20.10;;;7.15;;
79761;SDS011;69249;42.122;24.734;2023-07-22T12:53:31;13.55;;;7.22;;
79761;SDS011;69249;42.122;24.734;2023-07-22T12:55:56;19.40;;;7.65;;
79761;SDS011;69249;42.122;24.734;2023-07-22T12:58:22;14.65;;;7.35;;
79761;SDS011;69249;42.122;24.734;2023-07-22T13:00:48;17.20;;;6.35;;
79761;SDS011;69249;42.122;24.734;2023-07-22T13:03:13;15.38;;;6.85;;
79761;SDS011;69249;42.122;24.734;2023-07-22T13:05:39;15.93;;;7.35;;
79761;SDS011;69249;42.122;24.734;2023-07-22T13:08:05;14.15;;;7.35;;
79761;SDS011;69249;42.122;24.734;2023-07-22T13:10:31;13.32;;;6.78;;
79761;SDS011;69249;42.122;24.734;2023-07-22T13:12:58;15.02;;;7.53;;
79761;SDS011;69249;42.122;24.734;2023-07-22T13:15:24;16.58;;;7.25;;
79761;SDS011;69249;42.122;24.734;2023-07-22T13:17:49;14.93;;;6.90;;
79761;SDS011;69249;42.122;24.734;2023-07-22T13:20:15;13.95;;;7.00;;
79761;SDS011;69249;42.122;24.734;2023-07-22T13:22:41;18.08;;;7.55;;
79761;SDS011;69249;42.122;24.734;2023-07-22T13:25:07;15.05;;;6.95;;
79761;SDS011;69249;42.122;24.734;2023-07-22T13:27:34;12.15;;;6.63;;
79761;SDS011;69249;42.122;24.734;2023-07-22T13:30:00;15.75;;;7.15;;
79761;SDS011;69249;42.122;24.734;2023-07-22T13:32:26;14.35;;;7.60;;
79761;SDS011;69249;42.122;24.734;2023-07-22T13:34:52;13.70;;;7.07;;
79761;SDS011;69249;42.122;24.734;2023-07-22T13:37:18;14.63;;;6.95;;
79761;SDS011;69249;42.122;24.734;2023-07-22T13:39:43;16.52;;;7.32;;
79761;SDS011;69249;42.122;24.734;2023-07-22T13:42:09;17.17;;;7.57;;
79761;SDS011;69249;42.122;24.734;2023-07-22T13:44:35;17.08;;;7.75;;
79761;SDS011;69249;42.122;24.734;2023-07-22T13:47:01;16.27;;;7.43;;
79761;SDS011;69249;42.122;24.734;2023-07-22T13:49:27;17.52;;;7.45;;
79761;SDS011;69249;42.122;24.734;2023-07-22T13:51:52;20.83;;;7.55;;
79761;SDS011;69249;42.122;24.734;2023-07-22T13:54:18;15.85;;;7.13;;
79761;SDS011;69249;42.122;24.734;2023-07-22T13:56:44;15.57;;;7.28;;
79761;SDS011;69249;42.122;24.734;2023-07-22T13:59:12;18.55;;;6.63;;
79761;SDS011;69249;42.122;24.734;2023-07-22T14:01:38;19.77;;;7.97;;
79761;SDS011;69249;42.122;24.734;2023-07-22T14:04:04;15.30;;;7.25;;
79761;SDS011;69249;42.122;24.734;2023-07-22T14:06:30;16.88;;;7.60;;
79761;SDS011;69249;42.122;24.734;2023-07-22T14:08:56;21.75;;;8.23;;
79761;SDS011;69249;42.122;24.734;2023-07-22T14:11:21;20.63;;;7.20;;
79761;SDS011;69249;42.122;24.734;2023-07-22T14:13:47;17.50;;;7.65;;
79761;SDS011;69249;42.122;24.734;2023-07-22T14:16:13;16.85;;;7.47;;
79761;SDS011;69249;42.122;24.734;2023-07-22T14:18:38;16.55;;;6.82;;
79761;SDS011;69249;42.122;24.734;2023-07-22T14:21:04;19.08;;;7.40;;
79761;SDS011;69249;42.122;24.734;2023-07-22T14:23:30;25.35;;;7.63;;
79761;SDS011;69249;42.122;24.734;2023-07-22T14:25:55;19.27;;;7.45;;
79761;SDS011;69249;42.122;24.734;2023-07-22T14:28:21;16.08;;;7.03;;
79761;SDS011;69249;42.122;24.734;2023-07-22T14:30:48;19.52;;;8.05;;
79761;SDS011;69249;42.122;24.734;2023-07-22T14:33:13;20.67;;;7.80;;
79761;SDS011;69249;42.122;24.734;2023-07-22T14:35:39;23.95;;;7.90;;